Cabri, Canada
Current Conditions -  °F | °C
As of 10:00 AM on Saturday 22 Nov 2014 (Local Time) from CYYN Reporting Station
Light Rain Light Rain  
Wind Chill: 24°   Ceiling: 3400
Heat Index: 34°   Visibility: 9mi
Dew Point: 32°   Wind: 16mph
Humidity: 93%   Direction: 160°SSE
Pressure: 29.14"   Gusts: 22mph
Location:  50.62°N, 108.45°W
Report Text: CYYN 221600Z AUTO 16014G19KT 9SM -RA FEW028 OVC034 01/M00 A2914 RMK SLP893
Loading
Personal Weather Stations






























Interactive Weather Map New forecast layout! Learn more

10-Day Weather Forecast

Advertisements
Track Severe Weather on mobile